createdAt,value
2023-01-10T00:00:15.439Z,6.70
2023-01-10T00:01:17.337Z,6.70
2023-01-10T00:02:19.105Z,6.70
2023-01-10T00:03:20.873Z,6.70
2023-01-10T00:04:23.139Z,6.70
2023-01-10T00:05:24.863Z,6.70
2023-01-10T00:06:26.654Z,6.60
2023-01-10T00:07:28.380Z,6.70
2023-01-10T00:08:30.136Z,6.60
2023-01-10T00:09:31.848Z,6.60
2023-01-10T00:10:34.541Z,6.60
2023-01-10T00:11:56.182Z,6.60
2023-01-10T00:13:16.655Z,6.60
2023-01-10T00:14:18.442Z,6.70
2023-01-10T00:15:20.544Z,6.60
2023-01-10T00:16:23.552Z,6.60
2023-01-10T00:17:25.376Z,6.60
2023-01-10T00:18:27.098Z,6.60
2023-01-10T00:19:28.972Z,6.60
2023-01-10T00:20:31.667Z,6.60
2023-01-10T00:21:33.440Z,6.70
2023-01-10T00:22:35.224Z,6.70
2023-01-10T00:23:37.041Z,6.70
2023-01-10T00:24:39.054Z,6.70
2023-01-10T00:25:43.068Z,6.70
2023-01-10T00:26:50.843Z,6.70
2023-01-10T00:28:08.384Z,6.70
2023-01-10T00:29:10.745Z,6.70
2023-01-10T00:30:15.923Z,6.70
2023-01-10T00:31:17.999Z,6.70
2023-01-10T00:32:20.959Z,6.70
2023-01-10T00:33:23.710Z,6.70
2023-01-10T00:34:25.575Z,6.70
2023-01-10T00:35:27.479Z,6.70
2023-01-10T00:36:29.324Z,6.70
2023-01-10T00:37:31.036Z,6.70
2023-01-10T00:38:34.414Z,6.70
2023-01-10T00:39:36.396Z,6.80
2023-01-10T00:40:38.268Z,6.80
2023-01-10T00:41:59.196Z,6.80
2023-01-10T00:43:19.993Z,6.80
2023-01-10T00:44:21.658Z,6.80
2023-01-10T00:45:24.989Z,6.80
2023-01-10T00:46:27.507Z,6.80
2023-01-10T00:47:29.344Z,6.80
2023-01-10T00:48:31.363Z,6.80
2023-01-10T00:49:33.224Z,6.80
2023-01-10T00:50:35.378Z,6.80
2023-01-10T00:51:37.225Z,6.80
2023-01-10T00:52:39.297Z,6.80
2023-01-10T00:53:41.188Z,6.80
2023-01-10T00:54:43.696Z,6.80
2023-01-10T00:55:45.739Z,6.80
2023-01-10T00:56:47.561Z,6.80
2023-01-10T00:57:49.230Z,6.80
2023-01-10T00:58:50.995Z,6.90
2023-01-10T00:59:52.733Z,6.90
2023-01-10T01:00:54.511Z,6.90
2023-01-10T01:01:56.526Z,6.90
2023-01-10T01:02:58.394Z,6.90
2023-01-10T01:04:00.748Z,6.90
2023-01-10T01:05:02.589Z,6.90
2023-01-10T01:06:06.333Z,6.80
2023-01-10T01:07:08.822Z,6.80
2023-01-10T01:08:12.359Z,6.90
2023-01-10T01:09:14.870Z,6.90
2023-01-10T01:10:29.393Z,6.80
2023-01-10T01:11:31.247Z,6.90
2023-01-10T01:12:33.073Z,6.90
2023-01-10T01:13:34.988Z,6.90
2023-01-10T01:14:36.752Z,6.90
2023-01-10T01:15:38.703Z,6.90
2023-01-10T01:16:40.464Z,6.90
2023-01-10T01:17:42.221Z,6.90
2023-01-10T01:18:44.318Z,6.90
2023-01-10T01:19:46.138Z,6.90
2023-01-10T01:20:53.044Z,6.90
2023-01-10T01:21:54.821Z,6.90
2023-01-10T01:22:56.653Z,6.90
2023-01-10T01:23:58.476Z,6.90
2023-01-10T01:25:00.308Z,6.90
2023-01-10T01:26:02.469Z,6.90
2023-01-10T01:27:04.325Z,6.90
2023-01-10T01:28:06.645Z,6.90
2023-01-10T01:29:11.158Z,6.90
2023-01-10T01:30:14.017Z,6.90
2023-01-10T01:31:15.971Z,6.90
2023-01-10T01:32:19.327Z,6.90
2023-01-10T01:33:21.257Z,6.90
2023-01-10T01:34:23.165Z,6.80
2023-01-10T01:35:25.203Z,6.90
2023-01-10T01:36:27.096Z,6.90
2023-01-10T01:37:28.895Z,6.80
2023-01-10T01:38:30.694Z,6.90
2023-01-10T01:39:32.503Z,6.90
2023-01-10T01:40:34.536Z,6.90
2023-01-10T01:41:54.988Z,6.90
2023-01-10T01:42:56.850Z,6.90
2023-01-10T01:44:07.499Z,6.90
2023-01-10T01:45:09.461Z,6.90
2023-01-10T01:46:11.328Z,6.90
2023-01-10T01:47:24.510Z,6.90
2023-01-10T01:48:40.150Z,6.90
2023-01-10T01:49:44.645Z,6.90
2023-01-10T01:50:55.222Z,6.90
2023-01-10T01:52:04.664Z,6.90
2023-01-10T01:53:19.018Z,6.90
2023-01-10T01:54:21.119Z,6.90
2023-01-10T01:55:25.307Z,6.90
2023-01-10T01:56:42.912Z,6.90
2023-01-10T01:57:46.279Z,6.90
2023-01-10T01:58:52.993Z,6.90
2023-01-10T01:59:55.909Z,6.90
2023-01-10T02:00:58.649Z,6.90
2023-01-10T02:02:07.533Z,6.90
2023-01-10T02:03:09.847Z,6.80
2023-01-10T02:04:22.208Z,6.80
2023-01-10T02:05:25.535Z,6.80
2023-01-10T02:06:28.509Z,6.80
2023-01-10T02:07:34.494Z,6.80
2023-01-10T02:08:38.501Z,6.90
2023-01-10T02:09:51.849Z,6.80
2023-01-10T02:11:14.524Z,6.90
2023-01-10T02:12:16.777Z,6.90
2023-01-10T02:13:22.374Z,6.90
2023-01-10T02:14:26.020Z,6.90
2023-01-10T02:15:28.104Z,6.90
2023-01-10T02:16:30.038Z,6.90
2023-01-10T02:17:31.798Z,6.90
2023-01-10T02:18:34.160Z,6.90
2023-01-10T02:19:57.089Z,6.90
2023-01-10T02:21:09.585Z,7.00
2023-01-10T02:22:47.281Z,6.90
2023-01-10T02:24:43.269Z,7.00
2023-01-10T02:25:50.961Z,7.00
2023-01-10T02:27:04.176Z,7.00
2023-01-10T02:28:40.221Z,7.00
2023-01-10T02:30:09.211Z,7.00
2023-01-10T02:31:13.820Z,7.00
2023-01-10T02:32:43.942Z,7.00
2023-01-10T02:33:59.787Z,7.00
2023-01-10T02:35:27.828Z,7.00
2023-01-10T02:36:50.341Z,7.10
2023-01-10T02:38:18.139Z,7.10
2023-01-10T02:39:39.856Z,7.10
2023-01-10T02:41:00.924Z,7.10
2023-01-10T02:42:09.682Z,7.10
2023-01-10T02:43:45.585Z,7.10
2023-01-10T02:45:11.274Z,7.20
2023-01-10T02:46:25.715Z,7.20
2023-01-10T02:47:35.163Z,7.20
2023-01-10T02:48:36.942Z,7.20
2023-01-10T02:49:46.489Z,7.20
2023-01-10T02:51:17.783Z,7.20
2023-01-10T02:52:27.209Z,7.20
2023-01-10T02:53:38.103Z,7.20
2023-01-10T02:54:39.987Z,7.20
2023-01-10T02:55:59.566Z,7.20
2023-01-10T02:57:30.870Z,7.20
2023-01-10T02:58:48.846Z,7.20
2023-01-10T03:00:12.100Z,7.20
2023-01-10T03:01:26.011Z,7.20
2023-01-10T03:02:53.298Z,7.20
2023-01-10T03:04:07.062Z,7.20
2023-01-10T03:05:20.772Z,7.20
2023-01-10T03:07:03.916Z,7.20
2023-01-10T03:08:23.533Z,7.20
2023-01-10T03:09:50.650Z,7.20
2023-01-10T03:10:58.106Z,7.20
2023-01-10T03:12:21.275Z,7.20
2023-01-10T03:13:50.372Z,7.20
2023-01-10T03:14:55.754Z,7.20
2023-01-10T03:15:59.653Z,7.20
2023-01-10T03:17:08.928Z,7.20
2023-01-10T03:18:21.154Z,7.20
2023-01-10T03:19:26.982Z,7.20
2023-01-10T03:20:31.908Z,7.20
2023-01-10T03:21:36.153Z,7.20
2023-01-10T03:22:41.083Z,7.20
2023-01-10T03:23:43.877Z,7.20
2023-01-10T03:24:49.502Z,7.20
2023-01-10T03:25:56.199Z,7.20
2023-01-10T03:27:15.699Z,7.20
2023-01-10T03:28:22.263Z,7.20
2023-01-10T03:29:40.685Z,7.10
2023-01-10T03:30:52.021Z,7.20
2023-01-10T03:32:02.105Z,7.10
2023-01-10T03:33:04.909Z,7.10
2023-01-10T03:34:07.052Z,7.10
2023-01-10T03:35:11.081Z,7.10
2023-01-10T03:36:38.472Z,7.10
2023-01-10T03:37:56.190Z,7.10
2023-01-10T03:39:18.175Z,7.00
2023-01-10T03:40:32.911Z,7.00
2023-01-10T03:41:59.375Z,7.00
2023-01-10T03:43:30.617Z,7.00
2023-01-10T03:45:01.382Z,7.00
2023-01-10T03:46:10.699Z,7.00
2023-01-10T03:47:35.533Z,7.00
2023-01-10T03:48:42.308Z,7.00
2023-01-10T03:49:48.315Z,6.90
2023-01-10T03:50:52.148Z,6.90
2023-01-10T03:51:54.739Z,6.90
2023-01-10T03:52:57.347Z,6.90
2023-01-10T03:54:04.413Z,6.90
2023-01-10T03:55:09.847Z,6.90
2023-01-10T03:56:15.073Z,6.90
2023-01-10T03:57:19.600Z,7.00
2023-01-10T03:58:21.998Z,6.90
2023-01-10T03:59:26.948Z,6.90
2023-01-10T04:00:28.903Z,6.90
2023-01-10T04:01:30.772Z,6.90
2023-01-10T04:02:32.923Z,7.00
2023-01-10T04:03:34.727Z,7.00
2023-01-10T04:04:36.537Z,7.00
2023-01-10T04:05:38.370Z,7.00
2023-01-10T04:06:41.047Z,7.00
2023-01-10T04:07:42.867Z,7.00
2023-01-10T04:08:44.644Z,7.00
2023-01-10T04:09:46.959Z,7.00
2023-01-10T04:10:49.940Z,7.10
2023-01-10T04:11:51.915Z,7.10
2023-01-10T04:12:53.709Z,7.10
2023-01-10T04:13:55.544Z,7.10
2023-01-10T04:14:57.284Z,7.10
2023-01-10T04:16:01.767Z,7.10
2023-01-10T04:17:04.153Z,7.10
2023-01-10T04:18:05.924Z,7.10
2023-01-10T04:19:07.945Z,7.10
2023-01-10T04:20:10.862Z,7.10
2023-01-10T04:21:12.717Z,7.10
2023-01-10T04:22:14.543Z,7.10
2023-01-10T04:23:16.510Z,7.00
2023-01-10T04:24:18.321Z,7.10
2023-01-10T04:25:20.362Z,7.10
2023-01-10T04:26:22.097Z,7.10
2023-01-10T04:27:25.001Z,7.10
2023-01-10T04:28:27.178Z,7.10
2023-01-10T04:29:28.971Z,7.10
2023-01-10T04:30:30.745Z,7.10
2023-01-10T04:31:32.664Z,7.10
2023-01-10T04:32:34.601Z,7.10
2023-01-10T04:33:36.411Z,7.10
2023-01-10T04:34:38.149Z,7.10
2023-01-10T04:35:40.032Z,7.10
2023-01-10T04:36:42.318Z,7.20
2023-01-10T04:37:44.833Z,7.10
2023-01-10T04:38:47.374Z,7.10
2023-01-10T04:39:51.247Z,7.10
2023-01-10T04:40:55.110Z,7.10
2023-01-10T04:41:57.915Z,7.20
2023-01-10T04:42:59.684Z,7.10
2023-01-10T04:44:01.795Z,7.10
2023-01-10T04:45:04.193Z,7.20
2023-01-10T04:46:05.960Z,7.10
2023-01-10T04:47:07.771Z,7.10
2023-01-10T04:48:09.522Z,7.10
2023-01-10T04:49:11.686Z,7.20
2023-01-10T04:50:13.518Z,7.20
2023-01-10T04:51:15.406Z,7.20
2023-01-10T04:52:17.333Z,7.20
2023-01-10T04:53:19.687Z,7.20
2023-01-10T04:54:22.642Z,7.20
2023-01-10T04:55:25.208Z,7.20
2023-01-10T04:56:27.572Z,7.20
2023-01-10T04:57:29.431Z,7.20
2023-01-10T04:58:34.608Z,7.20
2023-01-10T04:59:37.522Z,7.20
2023-01-10T05:00:39.720Z,7.20
2023-01-10T05:01:41.870Z,7.20
2023-01-10T05:02:44.900Z,7.20
2023-01-10T05:03:51.339Z,7.20
2023-01-10T05:04:53.616Z,7.20
2023-01-10T05:05:59.145Z,7.20
2023-01-10T05:07:01.015Z,7.20
2023-01-10T05:08:02.954Z,7.20
2023-01-10T05:09:05.278Z,7.20
2023-01-10T05:10:09.322Z,7.20
2023-01-10T05:11:11.757Z,7.20
2023-01-10T05:12:13.577Z,7.20
2023-01-10T05:13:15.272Z,7.10
2023-01-10T05:14:17.048Z,7.10
2023-01-10T05:15:20.992Z,7.10
2023-01-10T05:16:22.854Z,7.10
2023-01-10T05:17:24.678Z,7.10
2023-01-10T05:18:28.023Z,7.00
2023-01-10T05:19:29.746Z,7.10
2023-01-10T05:20:31.509Z,7.00
2023-01-10T05:21:33.278Z,7.00
2023-01-10T05:22:35.308Z,7.00
2023-01-10T05:23:37.785Z,7.00
2023-01-10T05:24:39.605Z,7.00
2023-01-10T05:25:41.375Z,7.00
2023-01-10T05:26:43.338Z,7.00
2023-01-10T05:27:45.160Z,7.00
2023-01-10T05:28:48.151Z,7.00
2023-01-10T05:29:49.913Z,7.00
2023-01-10T05:30:51.700Z,7.10
2023-01-10T05:31:55.201Z,7.00
2023-01-10T05:32:57.353Z,7.10
2023-01-10T05:33:59.387Z,7.10
2023-01-10T05:35:03.260Z,7.10
2023-01-10T05:36:08.286Z,7.20
2023-01-10T05:37:10.151Z,7.20
2023-01-10T05:38:11.906Z,7.20
2023-01-10T05:39:14.080Z,7.20
2023-01-10T05:40:16.050Z,7.20
2023-01-10T05:41:17.807Z,7.20
2023-01-10T05:42:19.879Z,7.20
2023-01-10T05:43:21.730Z,7.20
2023-01-10T05:44:23.461Z,7.30
2023-01-10T05:45:25.241Z,7.30
2023-01-10T05:46:26.992Z,7.30
2023-01-10T05:47:28.782Z,7.30
2023-01-10T05:48:30.662Z,7.30
2023-01-10T05:49:34.192Z,7.30
2023-01-10T05:50:36.162Z,7.30
2023-01-10T05:51:37.961Z,7.30
2023-01-10T05:52:40.361Z,7.30
2023-01-10T05:53:42.139Z,7.40
2023-01-10T05:54:45.137Z,7.40
2023-01-10T05:55:57.823Z,7.40
2023-01-10T05:56:59.621Z,7.40
2023-01-10T05:58:01.452Z,7.40
2023-01-10T05:59:11.796Z,7.40
2023-01-10T06:00:26.230Z,7.40
2023-01-10T06:01:28.850Z,7.40
2023-01-10T06:02:33.423Z,7.40
2023-01-10T06:03:35.408Z,7.40
2023-01-10T06:04:37.221Z,7.40
2023-01-10T06:05:39.027Z,7.40
2023-01-10T06:06:40.955Z,7.40
2023-01-10T06:07:42.927Z,7.40
2023-01-10T06:08:44.734Z,7.40
2023-01-10T06:09:46.799Z,7.40
2023-01-10T06:10:49.404Z,7.40
2023-01-10T06:11:51.483Z,7.40
2023-01-10T06:12:53.804Z,7.40
2023-01-10T06:13:56.967Z,7.40
2023-01-10T06:14:59.043Z,7.40
2023-01-10T06:16:01.434Z,7.40
2023-01-10T06:17:03.813Z,7.40
2023-01-10T06:18:05.750Z,7.40
2023-01-10T06:19:07.865Z,7.40
2023-01-10T06:20:10.781Z,7.40
2023-01-10T06:21:12.728Z,7.40
2023-01-10T06:22:14.801Z,7.40
2023-01-10T06:23:17.735Z,7.40
2023-01-10T06:24:19.549Z,7.40
2023-01-10T06:25:21.781Z,7.50
2023-01-10T06:26:23.703Z,7.50
2023-01-10T06:27:25.497Z,7.40
2023-01-10T06:28:27.336Z,7.40
2023-01-10T06:29:29.163Z,7.50
2023-01-10T06:30:31.051Z,7.50
2023-01-10T06:31:32.879Z,7.40
2023-01-10T06:32:35.456Z,7.50
2023-01-10T06:33:38.961Z,7.50
2023-01-10T06:34:40.807Z,7.40
2023-01-10T06:35:43.689Z,7.40
2023-01-10T06:36:45.390Z,7.40
2023-01-10T06:37:47.292Z,7.50
2023-01-10T06:38:49.315Z,7.50
2023-01-10T06:39:51.381Z,7.40
2023-01-10T06:40:53.169Z,7.50
2023-01-10T06:41:55.124Z,7.50
2023-01-10T06:42:56.978Z,7.50
2023-01-10T06:43:58.767Z,7.40
2023-01-10T06:45:00.923Z,7.50
2023-01-10T06:46:02.911Z,7.40
2023-01-10T06:47:04.922Z,7.40
2023-01-10T06:48:06.920Z,7.50
2023-01-10T06:49:09.509Z,7.40
2023-01-10T06:50:12.657Z,7.50
2023-01-10T06:51:18.014Z,7.40
2023-01-10T06:52:21.256Z,7.40
2023-01-10T06:53:23.159Z,7.40
2023-01-10T06:54:24.922Z,7.40
2023-01-10T06:55:27.224Z,7.40
2023-01-10T06:56:29.598Z,7.40
2023-01-10T06:57:34.198Z,7.40
2023-01-10T06:58:39.032Z,7.40
2023-01-10T06:59:40.881Z,7.40
2023-01-10T07:00:42.671Z,7.40
2023-01-10T07:01:44.578Z,7.40
2023-01-10T07:02:46.320Z,7.40
2023-01-10T07:03:49.863Z,7.40
2023-01-10T07:04:51.787Z,7.40
2023-01-10T07:05:53.578Z,7.30
2023-01-10T07:06:55.915Z,7.30
2023-01-10T07:07:58.745Z,7.30
2023-01-10T07:09:00.724Z,7.30
2023-01-10T07:10:03.446Z,7.30
2023-01-10T07:11:06.269Z,7.30
2023-01-10T07:12:08.080Z,7.30
2023-01-10T07:13:10.114Z,7.20
2023-01-10T07:14:11.909Z,7.20
2023-01-10T07:15:14.195Z,7.20
2023-01-10T07:16:16.874Z,7.10
2023-01-10T07:17:18.975Z,7.10
2023-01-10T07:18:21.201Z,7.10
2023-01-10T07:19:23.254Z,7.00
2023-01-10T07:20:26.054Z,7.00
2023-01-10T07:21:28.241Z,7.00
2023-01-10T07:22:30.070Z,7.00
2023-01-10T07:23:32.015Z,7.00
2023-01-10T07:24:35.601Z,7.00
2023-01-10T07:25:37.497Z,6.90
2023-01-10T07:26:39.294Z,6.90
2023-01-10T07:27:43.366Z,7.00
2023-01-10T07:28:52.812Z,6.90
2023-01-10T07:29:54.658Z,6.90
2023-01-10T07:31:00.931Z,6.90
2023-01-10T07:32:02.954Z,6.90
2023-01-10T07:33:06.594Z,7.00
2023-01-10T07:34:08.551Z,7.00
2023-01-10T07:35:10.374Z,7.00
2023-01-10T07:36:13.295Z,7.00
2023-01-10T07:37:15.157Z,7.00
2023-01-10T07:38:16.932Z,7.00
2023-01-10T07:39:18.766Z,6.90
2023-01-10T07:40:20.547Z,6.90
2023-01-10T07:41:22.313Z,7.00
2023-01-10T07:42:24.453Z,7.00
2023-01-10T07:43:26.244Z,7.00
2023-01-10T07:44:28.026Z,6.90
2023-01-10T07:45:31.067Z,7.00
2023-01-10T07:46:32.968Z,7.00
2023-01-10T07:47:35.234Z,6.90
2023-01-10T07:48:36.988Z,6.90
2023-01-10T07:49:38.853Z,7.00
2023-01-10T07:50:40.780Z,6.90
2023-01-10T07:51:42.784Z,7.00
2023-01-10T07:52:44.796Z,6.90
2023-01-10T07:53:46.792Z,6.90
2023-01-10T07:54:48.550Z,6.90
2023-01-10T07:55:50.694Z,6.90
2023-01-10T07:56:52.488Z,6.90
2023-01-10T07:57:54.701Z,6.90
2023-01-10T07:58:56.626Z,6.90
2023-01-10T07:59:58.545Z,6.90
2023-01-10T08:01:02.581Z,6.90
2023-01-10T08:02:04.539Z,6.90
2023-01-10T08:03:06.812Z,6.90
2023-01-10T08:04:10.816Z,6.90
2023-01-10T08:05:13.199Z,6.80
2023-01-10T08:06:16.889Z,6.80
2023-01-10T08:07:18.941Z,6.80
2023-01-10T08:08:20.831Z,6.80
2023-01-10T08:09:22.676Z,6.80
2023-01-10T08:10:26.351Z,6.80
2023-01-10T08:11:28.138Z,6.80
2023-01-10T08:12:30.756Z,6.80
2023-01-10T08:13:32.797Z,6.80
2023-01-10T08:14:34.621Z,6.70
2023-01-10T08:15:36.591Z,6.70
2023-01-10T08:16:38.443Z,6.80
2023-01-10T08:17:40.508Z,6.80
2023-01-10T08:18:43.236Z,6.80
2023-01-10T08:19:45.775Z,6.80
2023-01-10T08:20:53.074Z,6.80
2023-01-10T08:21:55.474Z,6.80
2023-01-10T08:22:58.713Z,6.80
2023-01-10T08:24:00.914Z,6.80
2023-01-10T08:25:03.618Z,6.80
2023-01-10T08:26:05.982Z,6.80
2023-01-10T08:27:08.053Z,6.80
2023-01-10T08:28:10.498Z,6.80
2023-01-10T08:29:12.405Z,6.80
2023-01-10T08:30:14.936Z,6.90
2023-01-10T08:31:16.926Z,6.90
2023-01-10T08:32:18.757Z,6.90
2023-01-10T08:33:20.528Z,6.90
2023-01-10T08:34:22.406Z,6.80
2023-01-10T08:35:24.225Z,6.90
2023-01-10T08:36:26.234Z,6.80
2023-01-10T08:37:28.738Z,6.90
2023-01-10T08:38:30.531Z,6.90
2023-01-10T08:39:32.497Z,6.80
2023-01-10T08:40:34.557Z,6.80
2023-01-10T08:41:36.513Z,6.90
2023-01-10T08:42:38.317Z,6.90
2023-01-10T08:43:40.616Z,6.90
2023-01-10T08:44:42.627Z,6.90
2023-01-10T08:45:44.420Z,6.90
2023-01-10T08:46:46.497Z,6.90
2023-01-10T08:47:49.051Z,6.90
2023-01-10T08:48:52.265Z,6.90
2023-01-10T08:49:54.001Z,6.90
2023-01-10T08:50:56.155Z,6.90
2023-01-10T08:51:59.094Z,7.00
2023-01-10T08:53:01.593Z,7.00
2023-01-10T08:54:05.786Z,7.00
2023-01-10T08:55:07.936Z,7.00
2023-01-10T08:56:10.749Z,7.00
2023-01-10T08:57:12.733Z,7.00
2023-01-10T08:58:14.665Z,7.00
2023-01-10T08:59:19.419Z,7.00
2023-01-10T09:00:21.721Z,7.00
2023-01-10T09:01:23.729Z,7.00
2023-01-10T09:02:25.583Z,7.00
2023-01-10T09:03:27.330Z,7.00
2023-01-10T09:04:32.737Z,7.10
2023-01-10T09:05:35.007Z,7.00
2023-01-10T09:06:37.564Z,7.00
2023-01-10T09:07:41.306Z,7.00
2023-01-10T09:08:43.103Z,7.10
2023-01-10T09:09:44.942Z,7.10
2023-01-10T09:10:48.858Z,7.10
2023-01-10T09:11:51.133Z,7.10
2023-01-10T09:12:56.475Z,7.10
2023-01-10T09:13:58.617Z,7.10
2023-01-10T09:15:00.497Z,7.10
2023-01-10T09:16:02.410Z,7.10
2023-01-10T09:17:04.332Z,7.10
2023-01-10T09:18:08.029Z,7.10
2023-01-10T09:19:09.731Z,7.10
2023-01-10T09:20:11.611Z,7.10
2023-01-10T09:21:13.668Z,7.10
2023-01-10T09:22:15.998Z,7.10
2023-01-10T09:23:20.171Z,7.10
2023-01-10T09:24:22.180Z,7.10
2023-01-10T09:25:25.198Z,7.10
2023-01-10T09:26:27.063Z,7.10
2023-01-10T09:27:29.080Z,7.10
2023-01-10T09:28:31.509Z,7.10
2023-01-10T09:29:33.303Z,7.10
2023-01-10T09:30:35.634Z,7.10
2023-01-10T09:31:37.535Z,7.10
2023-01-10T09:32:39.475Z,7.10
2023-01-10T09:33:47.060Z,7.10
2023-01-10T09:34:49.270Z,7.10
2023-01-10T09:35:51.700Z,7.00
2023-01-10T09:36:55.083Z,7.10
2023-01-10T09:38:03.528Z,7.00
2023-01-10T09:39:05.260Z,7.10
2023-01-10T09:40:09.775Z,7.00
2023-01-10T09:41:41.836Z,7.00
2023-01-10T09:43:25.462Z,7.10
2023-01-10T09:44:49.775Z,7.10
2023-01-10T09:46:05.480Z,7.00
2023-01-10T09:47:22.832Z,7.00
2023-01-10T09:48:55.607Z,7.10
2023-01-10T09:50:22.591Z,7.10
2023-01-10T09:51:35.364Z,7.10
2023-01-10T09:52:55.143Z,7.10
2023-01-10T09:54:11.284Z,7.00
2023-01-10T09:55:27.890Z,7.00
2023-01-10T09:56:30.781Z,7.00
2023-01-10T09:57:32.638Z,7.10
2023-01-10T09:58:36.445Z,7.00
2023-01-10T09:59:40.288Z,7.10
2023-01-10T10:00:52.896Z,7.10
2023-01-10T10:02:07.104Z,7.10
2023-01-10T10:03:39.579Z,7.10
2023-01-10T10:04:46.966Z,7.10
2023-01-10T10:05:52.660Z,7.10
2023-01-10T10:07:19.108Z,7.10
2023-01-10T10:08:21.644Z,7.10
2023-01-10T10:09:28.039Z,7.10
2023-01-10T10:10:47.369Z,7.10
2023-01-10T10:12:26.861Z,7.10
2023-01-10T10:13:47.732Z,7.10
2023-01-10T10:14:52.406Z,7.20
2023-01-10T10:16:11.349Z,7.20
2023-01-10T10:17:50.681Z,7.20
2023-01-10T10:19:28.159Z,7.20
2023-01-10T10:20:58.530Z,7.20
2023-01-10T10:22:19.766Z,7.20
2023-01-10T10:23:45.515Z,7.20
2023-01-10T10:25:08.555Z,7.20
2023-01-10T10:26:40.283Z,7.20
2023-01-10T10:27:56.884Z,7.20
2023-01-10T10:29:19.150Z,7.20
2023-01-10T10:30:49.195Z,7.20
2023-01-10T10:32:37.884Z,7.20
2023-01-10T10:33:48.988Z,7.20
2023-01-10T10:35:11.636Z,7.20
2023-01-10T10:36:25.525Z,7.20
2023-01-10T10:37:52.792Z,7.20
2023-01-10T10:39:00.022Z,7.20
2023-01-10T10:40:14.370Z,7.20
2023-01-10T10:41:27.007Z,7.20
2023-01-10T10:42:33.265Z,7.20
2023-01-10T10:43:37.469Z,7.20
2023-01-10T10:44:46.128Z,7.20
2023-01-10T10:45:54.373Z,7.20
2023-01-10T10:46:59.567Z,7.20
2023-01-10T10:48:11.760Z,7.20
2023-01-10T10:49:41.680Z,7.20
2023-01-10T10:51:03.087Z,7.20
2023-01-10T10:52:34.518Z,7.20
2023-01-10T10:53:36.643Z,7.20
2023-01-10T10:54:39.717Z,7.20
2023-01-10T10:55:41.577Z,7.20
2023-01-10T10:56:45.215Z,7.20
2023-01-10T10:57:59.343Z,7.20
2023-01-10T10:59:02.295Z,7.20
2023-01-10T11:00:05.648Z,7.20
2023-01-10T11:01:11.855Z,7.20
2023-01-10T11:02:32.009Z,7.20
2023-01-10T11:03:48.226Z,7.30
2023-01-10T11:04:53.239Z,7.20
2023-01-10T11:05:56.080Z,7.20
2023-01-10T11:06:57.916Z,7.20
2023-01-10T11:08:08.292Z,7.20
2023-01-10T11:09:10.111Z,7.20
2023-01-10T11:10:21.420Z,7.30
2023-01-10T11:11:29.648Z,7.30
2023-01-10T11:12:36.016Z,7.30
2023-01-10T11:13:58.382Z,7.30
2023-01-10T11:15:01.624Z,7.30
2023-01-10T11:16:08.361Z,7.30
2023-01-10T11:17:27.432Z,7.30
2023-01-10T11:18:30.734Z,7.30
2023-01-10T11:19:33.349Z,7.30
2023-01-10T11:20:35.431Z,7.30
2023-01-10T11:21:39.795Z,7.30
2023-01-10T11:22:49.395Z,7.30
2023-01-10T11:23:55.691Z,7.30
2023-01-10T11:25:02.312Z,7.30
2023-01-10T11:26:06.944Z,7.30
2023-01-10T11:27:29.950Z,7.30
2023-01-10T11:28:33.689Z,7.30
2023-01-10T11:29:43.690Z,7.40
2023-01-10T11:30:50.840Z,7.40
2023-01-10T11:31:56.589Z,7.40
2023-01-10T11:33:05.808Z,7.40
2023-01-10T11:34:31.189Z,7.40
2023-01-10T11:35:37.059Z,7.40
2023-01-10T11:36:55.534Z,7.40
2023-01-10T11:38:13.607Z,7.40
2023-01-10T11:39:17.799Z,7.40
2023-01-10T11:40:27.259Z,7.40
2023-01-10T11:41:34.658Z,7.40
2023-01-10T11:42:38.155Z,7.40
2023-01-10T11:43:41.337Z,7.50
2023-01-10T11:44:43.157Z,7.50
2023-01-10T11:45:45.156Z,7.50
2023-01-10T11:46:48.854Z,7.50
2023-01-10T11:48:02.544Z,7.50
2023-01-10T11:49:08.567Z,7.50
2023-01-10T11:50:11.920Z,7.50
2023-01-10T11:51:24.135Z,7.50
2023-01-10T11:52:29.892Z,7.60
2023-01-10T11:53:39.596Z,7.60
2023-01-10T11:54:42.264Z,7.50
2023-01-10T11:55:48.049Z,7.60
2023-01-10T11:57:01.598Z,7.60
2023-01-10T11:58:10.961Z,7.60
2023-01-10T11:59:18.218Z,7.60
2023-01-10T12:00:20.389Z,7.70
2023-01-10T12:01:39.887Z,7.70
2023-01-10T12:02:43.524Z,7.70
2023-01-10T12:03:46.528Z,7.70
2023-01-10T12:04:50.520Z,7.70
2023-01-10T12:05:58.456Z,7.70
2023-01-10T12:07:04.795Z,7.70
2023-01-10T12:08:08.089Z,7.70
2023-01-10T12:09:34.182Z,7.70
2023-01-10T12:10:36.310Z,7.70
2023-01-10T12:11:38.215Z,7.70
2023-01-10T12:12:54.135Z,7.70
2023-01-10T12:13:59.475Z,7.70
2023-01-10T12:15:38.052Z,7.70
2023-01-10T12:16:39.918Z,7.70
2023-01-10T12:17:42.386Z,7.70
2023-01-10T12:18:44.957Z,7.70
2023-01-10T12:19:46.979Z,7.70
2023-01-10T12:20:52.024Z,7.70
2023-01-10T12:21:59.634Z,7.70
2023-01-10T12:23:08.309Z,7.70
2023-01-10T12:24:21.977Z,7.80
2023-01-10T12:25:33.080Z,7.80
2023-01-10T12:26:35.458Z,7.80
2023-01-10T12:27:37.317Z,7.80
2023-01-10T12:28:43.960Z,7.80
2023-01-10T12:30:12.915Z,7.80
2023-01-10T12:31:15.497Z,7.80
2023-01-10T12:32:30.716Z,7.80
2023-01-10T12:33:38.791Z,7.80
2023-01-10T12:34:44.222Z,7.80
2023-01-10T12:35:52.242Z,7.80
2023-01-10T12:37:18.219Z,7.80
2023-01-10T12:39:05.435Z,7.80
2023-01-10T12:40:28.678Z,7.80
2023-01-10T12:42:02.715Z,7.80
2023-01-10T12:43:38.527Z,7.80
2023-01-10T12:44:49.124Z,7.80
2023-01-10T12:45:56.976Z,7.80
2023-01-10T12:47:19.933Z,7.80
2023-01-10T12:48:37.572Z,7.80
2023-01-10T12:49:51.111Z,7.80
2023-01-10T12:51:01.726Z,7.80
2023-01-10T12:52:14.893Z,7.80
2023-01-10T12:53:34.697Z,7.80
2023-01-10T12:54:38.819Z,7.80
2023-01-10T12:55:44.751Z,7.80
2023-01-10T12:56:49.738Z,7.80
2023-01-10T12:57:55.966Z,7.80
2023-01-10T12:59:03.897Z,7.80
2023-01-10T13:00:07.908Z,7.80
2023-01-10T13:01:14.905Z,7.80
2023-01-10T13:02:19.664Z,7.80
2023-01-10T13:03:25.875Z,7.80
2023-01-10T13:04:31.833Z,7.80
2023-01-10T13:05:34.872Z,7.80
2023-01-10T13:06:39.907Z,7.80
2023-01-10T13:07:42.338Z,7.80
2023-01-10T13:08:45.498Z,7.80
2023-01-10T13:09:48.377Z,7.80
2023-01-10T13:10:53.516Z,7.80
2023-01-10T13:12:01.688Z,7.80
2023-01-10T13:13:33.962Z,7.80
2023-01-10T13:14:54.981Z,7.80
2023-01-10T13:16:21.721Z,7.80
2023-01-10T13:17:32.818Z,7.80
2023-01-10T13:18:35.857Z,7.80
2023-01-10T13:19:37.652Z,7.80
2023-01-10T13:20:41.645Z,7.90
2023-01-10T13:21:45.811Z,7.90
2023-01-10T13:22:51.828Z,7.90
2023-01-10T13:23:58.531Z,7.90
2023-01-10T13:25:03.402Z,7.90
2023-01-10T13:26:10.009Z,7.90
2023-01-10T13:27:20.430Z,7.90
2023-01-10T13:28:30.097Z,7.90
2023-01-10T13:29:41.628Z,8.00
2023-01-10T13:30:43.628Z,8.00
2023-01-10T13:31:46.897Z,8.00
2023-01-10T13:32:59.495Z,8.00
2023-01-10T13:34:18.994Z,8.00
2023-01-10T13:35:20.873Z,8.00
2023-01-10T13:36:35.667Z,8.00
2023-01-10T13:37:40.087Z,8.00
2023-01-10T13:38:50.125Z,8.10
2023-01-10T13:39:59.910Z,8.10
2023-01-10T13:41:33.155Z,8.10
2023-01-10T13:42:55.339Z,8.10
2023-01-10T13:44:09.351Z,8.10
2023-01-10T13:45:13.319Z,8.10
2023-01-10T13:46:15.417Z,8.10
2023-01-10T13:47:39.887Z,8.10
2023-01-10T13:48:42.916Z,8.10
2023-01-10T13:49:44.879Z,8.10
2023-01-10T13:50:52.031Z,8.20
2023-01-10T13:52:28.756Z,8.20
2023-01-10T13:53:33.387Z,8.20
2023-01-10T13:54:35.463Z,8.20
2023-01-10T13:55:40.140Z,8.20
2023-01-10T13:56:44.577Z,8.20
2023-01-10T13:58:03.966Z,8.20
2023-01-10T13:59:43.099Z,8.20
2023-01-10T14:01:07.211Z,8.20
2023-01-10T14:02:31.733Z,8.20
2023-01-10T14:03:55.691Z,8.20
2023-01-10T14:05:07.377Z,8.20
2023-01-10T14:06:30.028Z,8.20
2023-01-10T14:07:43.164Z,8.20
2023-01-10T14:08:52.358Z,8.20
2023-01-10T14:10:07.882Z,8.20
2023-01-10T14:11:12.765Z,8.20
2023-01-10T14:12:25.765Z,8.20
2023-01-10T14:13:27.567Z,8.20
2023-01-10T14:14:39.590Z,8.10
2023-01-10T14:15:44.536Z,8.10
2023-01-10T14:16:51.058Z,8.10
2023-01-10T14:18:22.212Z,8.10
2023-01-10T14:19:31.847Z,8.00
2023-01-10T14:20:35.894Z,8.00
2023-01-10T14:21:45.501Z,7.90
2023-01-10T14:23:16.018Z,7.90
2023-01-10T14:24:28.544Z,7.80
2023-01-10T14:25:33.164Z,7.80
2023-01-10T14:26:38.992Z,7.70
2023-01-10T14:27:50.822Z,7.70
2023-01-10T14:28:52.778Z,7.70
2023-01-10T14:29:59.502Z,7.60
2023-01-10T14:31:31.910Z,7.60
2023-01-10T14:32:36.077Z,7.60
2023-01-10T14:33:41.664Z,7.60
2023-01-10T14:34:45.204Z,7.50
2023-01-10T14:35:51.131Z,7.50
2023-01-10T14:37:03.390Z,7.50
2023-01-10T14:38:08.639Z,7.50
2023-01-10T14:39:16.145Z,7.40
2023-01-10T14:40:18.062Z,7.40
2023-01-10T14:41:25.906Z,7.40
2023-01-10T14:42:28.579Z,7.40
2023-01-10T14:43:44.724Z,7.40
2023-01-10T14:45:08.681Z,7.40
2023-01-10T14:46:19.075Z,7.30
2023-01-10T14:47:36.211Z,7.30
2023-01-10T14:49:00.927Z,7.30
2023-01-10T14:50:08.743Z,7.30
2023-01-10T14:51:29.268Z,7.20
2023-01-10T14:52:31.517Z,7.20
2023-01-10T14:53:33.381Z,7.20
2023-01-10T14:54:35.222Z,7.20